Grizzly Air Cargo 5115


PAFA
Fairbanks International Airport
Fairbanks, Alaska, US
PAJN
Juneau International Airport
Juneau, Alaska, US

Activity Log

Date Flight Route Aircraft Duration
06/30/2019 GRZ505 FAI J502 SSR B722 1h 34m
06/25/2019 GRZ505 FAI J502 SSR B722 1h 32m
04/15/2019 GRZ505 RDFLG2 RDFLG J502 SSR B722 1h 28m

Route Details

Aircraft Information
Primary: Boeing 727-200F
Backup: Boeing 737-800BCF
Route Data
Distance: 574nm
Sched. Duration: 2h 00m
Avg. Duration: 1h 31m (-69m)
Times Flown: 3
Recm'd Route: FAI J502 SSR
Planned Altitude: 33,000ft
Origin Wx: PAFA 051553Z 00000KT 10SM FEW050 FEW110 SCT200 13/06 A2992 RMK AO2 SLP136 T01280056 $
Dest. Wx: PAJN 051553Z 00000KT 10SM BKN080 10/07 A2992 RMK AO2 SLP132 T01000072
Notes:

Financial History
Total Freight: 138,271lbs
Average Load: 46,090lbs/flt
Fuel Used: 37,501lbs
Avg. Fuel Used: 12,500lbs/flt
Fuel Expense: $39,751
Avg. Fuel Expense: $13,250
Avg. Fuel Cost: $1.06/lbs
Total Gross Income: $297,283
Pilot Pay: $607
Total Expenses: $32,263
Total Revenue: $224,178
Average Revenue: $99,094.22